Weather History For Prescott AZ
This page updates 5 minutes after midnight. GMT -7
Station: KPRC0 Rows: 26
| Year | Date | Temp (°F) | Tmin (°F) | Tmax (°F) | RH% | Prcp | Snow | Wind | Gust | Pres | Sun | Cloud |
|---|---|---|---|---|---|---|---|---|---|---|---|---|
| 2000 | 2000-04-09 | 61.3 | 46.9 | 75.9 | 27 | — | — | 17.1 | — | 29.82 | — | 1 |
| 2001 | 2001-04-09 | 42.3 | 28.0 | 54.0 | 40 | — | — | 15.6 | — | 29.80 | — | 2 |
| 2002 | 2002-04-09 | 57.9 | 42.8 | 71.6 | 38 | — | — | 10.8 | — | 30.05 | — | 0 |
| 2003 | 2003-04-09 | 56.3 | 37.4 | 73.4 | 26 | — | — | 12.7 | — | 29.99 | — | 0 |
| 2004 | 2004-04-09 | 55.6 | 46.4 | 66.2 | 59 | — | — | 10.3 | — | 29.87 | — | 3 |
| 2005 | 2005-04-09 | 41.2 | 34.0 | 46.9 | 58 | — | — | 19.9 | — | 29.65 | — | 4 |
| 2006 | 2006-04-09 | 56.1 | 37.9 | 70.0 | 26 | 0.0 | — | 16.2 | — | 29.85 | — | 0 |
| 2007 | 2007-04-09 | 58.6 | 48.0 | 70.0 | 52 | 0.0 | — | 15.1 | — | 29.78 | — | 2 |
| 2008 | 2008-04-09 | 49.3 | 42.1 | 57.9 | 33 | 0.0 | — | 17.7 | — | 29.61 | — | 3 |
| 2009 | 2009-04-09 | 49.1 | 36.0 | 62.1 | 36 | 0.0 | — | 10.3 | — | 29.83 | — | 0 |
| 2010 | 2010-04-09 | 54.1 | 35.1 | 70.0 | 26 | 0.0 | — | 11.7 | — | 29.83 | — | 0 |
| 2011 | 2011-04-09 | 32.7 | 28.9 | 39.0 | 84 | — | — | 10.2 | — | 29.82 | — | — |
| 2012 | 2012-04-09 | 59.5 | 39.0 | 75.0 | 19 | 0.0 | — | 10.9 | — | 29.96 | — | 0 |
| 2013 | 2013-04-09 | 42.6 | 35.1 | 51.1 | 56 | — | — | 21.9 | — | 29.65 | — | 6 |
| 2014 | 2014-04-09 | 62.1 | 44.1 | 80.1 | 16 | 0.0 | — | 12.7 | — | 30.01 | — | 0 |
| 2015 | 2015-04-09 | 48.4 | 28.9 | 66.0 | 22 | 0.0 | — | 9.7 | — | 29.92 | — | 0 |
| 2016 | 2016-04-09 | 53.8 | 44.1 | 63.0 | 63 | 0.0 | — | 11.2 | — | 29.87 | — | — |
| 2017 | 2017-04-09 | 50.7 | 36.0 | 62.1 | 31 | 0.0 | — | 12.2 | — | 29.89 | — | 0 |
| 2018 | 2018-04-09 | 60.3 | — | — | 16 | — | — | 8.0 | — | 29.97 | — | 0 |
| 2019 | 2019-04-09 | 63.1 | 48.9 | 77.0 | 25 | 0.0 | — | 25.9 | — | 29.79 | — | 0 |
| 2020 | 2020-04-09 | 44.2 | 33.1 | 55.0 | 56 | 0.0 | — | 11.5 | — | 30.00 | — | — |
| 2021 | 2021-04-09 | 57.9 | 37.9 | 73.0 | 21 | 0.0 | — | 9.8 | — | 29.85 | — | 0 |
| 2022 | 2022-04-09 | 61.9 | 43.0 | 75.0 | 18 | 0.0 | — | 18.8 | — | 29.77 | — | 0 |
| 2023 | 2023-04-09 | 57.6 | 37.9 | 75.0 | 30 | 0.0 | — | 7.7 | — | 30.06 | — | 0 |
| 2024 | 2024-04-09 | 51.1 | 35.1 | 66.0 | 30 | 0.0 | — | 13.5 | — | 29.94 | — | 0 |
| 2025 | 2025-04-09 | 62.6 | 42.1 | 80.1 | 21 | 0.0 | — | 10.5 | — | 30.06 | — | 0 |